createdAt,value
2017-11-26T00:00:00.356Z,91.81
2017-11-26T00:01:00.334Z,91.62
2017-11-26T00:02:00.310Z,91.90
2017-11-26T00:03:00.292Z,91.62
2017-11-26T00:04:00.271Z,91.71
2017-11-26T00:05:00.241Z,92.38
2017-11-26T00:06:00.216Z,92.09
2017-11-26T00:07:00.192Z,92.00
2017-11-26T00:08:00.170Z,92.00
2017-11-26T00:09:00.146Z,92.00
2017-11-26T00:10:00.121Z,92.09
2017-11-26T00:11:00.099Z,91.90
2017-11-26T00:12:00.076Z,92.28
2017-11-26T00:13:00.052Z,92.00
2017-11-26T00:14:00.031Z,92.47
2017-11-26T00:15:00.035Z,92.76
2017-11-26T00:15:59.982Z,92.57
2017-11-26T00:16:59.960Z,92.47
2017-11-26T00:17:59.940Z,92.28
2017-11-26T00:18:59.913Z,91.81
2017-11-26T00:19:59.889Z,92.00
2017-11-26T00:20:59.872Z,92.28
2017-11-26T00:21:59.842Z,92.19
2017-11-26T00:22:59.819Z,92.00
2017-11-26T00:23:59.798Z,92.57
2017-11-26T00:24:59.777Z,92.28
2017-11-26T00:25:59.757Z,92.00
2017-11-26T00:26:59.733Z,92.28
2017-11-26T00:27:59.735Z,92.00
2017-11-26T00:28:59.679Z,92.38
2017-11-26T00:29:59.665Z,92.19
2017-11-26T00:30:59.745Z,92.19
2017-11-26T00:31:59.618Z,92.19
2017-11-26T00:32:59.599Z,92.47
2017-11-26T00:33:59.567Z,92.94
2017-11-26T00:34:59.618Z,92.38
2017-11-26T00:35:59.518Z,92.38
2017-11-26T00:36:59.580Z,92.57
2017-11-26T00:37:59.471Z,92.76
2017-11-26T00:38:59.451Z,93.04
2017-11-26T00:39:59.433Z,93.13
2017-11-26T00:40:59.521Z,93.23
2017-11-26T00:41:59.386Z,93.23
2017-11-26T00:42:59.356Z,93.13
2017-11-26T00:43:59.336Z,92.85
2017-11-26T00:44:59.338Z,93.13
2017-11-26T00:45:59.287Z,92.85
2017-11-26T00:46:59.321Z,93.42
2017-11-26T00:47:59.237Z,93.13
2017-11-26T00:48:59.215Z,92.76
2017-11-26T00:49:59.191Z,93.32
2017-11-26T00:50:59.168Z,92.85
2017-11-26T00:51:59.148Z,92.76
2017-11-26T00:52:59.121Z,92.85
2017-11-26T00:53:59.099Z,92.85
2017-11-26T00:54:59.074Z,92.66
2017-11-26T00:55:59.053Z,93.04
2017-11-26T00:56:59.027Z,92.85
2017-11-26T00:57:59.032Z,93.04
2017-11-26T00:58:58.983Z,93.04
2017-11-26T00:59:58.992Z,93.42
2017-11-26T01:00:58.936Z,93.42
2017-11-26T01:01:58.913Z,93.61
2017-11-26T01:02:58.888Z,93.32
2017-11-26T01:03:58.879Z,93.32
2017-11-26T01:04:58.845Z,93.61
2017-11-26T01:05:58.817Z,93.61
2017-11-26T01:06:58.803Z,93.89
2017-11-26T01:07:58.782Z,93.89
2017-11-26T01:08:58.750Z,93.42
2017-11-26T01:09:58.723Z,93.61
2017-11-26T01:10:58.705Z,93.61
2017-11-26T01:11:58.683Z,93.51
2017-11-26T01:12:58.656Z,93.32
2017-11-26T01:13:58.636Z,93.32
2017-11-26T01:14:58.612Z,93.70
2017-11-26T01:15:58.587Z,93.32
2017-11-26T01:16:58.564Z,93.23
2017-11-26T01:17:58.558Z,93.61
2017-11-26T01:18:58.526Z,93.70
2017-11-26T01:19:58.491Z,93.89
2017-11-26T01:20:58.474Z,93.80
2017-11-26T01:21:58.442Z,93.80
2017-11-26T01:22:58.423Z,93.80
2017-11-26T01:23:58.407Z,93.70
2017-11-26T01:24:58.382Z,94.08
2017-11-26T01:25:58.349Z,93.32
2017-11-26T01:26:58.329Z,93.80
2017-11-26T01:27:58.306Z,93.80
2017-11-26T01:28:58.279Z,93.61
2017-11-26T01:29:58.258Z,93.61
2017-11-26T01:30:58.242Z,94.27
2017-11-26T01:31:58.211Z,94.27
2017-11-26T01:32:58.189Z,94.37
2017-11-26T01:33:58.161Z,94.56
2017-11-26T01:34:58.138Z,94.56
2017-11-26T01:35:58.122Z,94.46
2017-11-26T01:36:58.091Z,94.65
2017-11-26T01:37:58.068Z,95.12
2017-11-26T01:38:58.043Z,94.84
2017-11-26T01:39:58.072Z,94.84
2017-11-26T01:40:57.997Z,95.07
2017-11-26T01:41:57.996Z,94.79
2017-11-26T01:42:57.976Z,94.84
2017-11-26T01:43:57.926Z,95.60
2017-11-26T01:44:57.900Z,95.69
2017-11-26T01:45:57.978Z,95.26
2017-11-26T01:46:57.875Z,95.69
2017-11-26T01:47:57.831Z,95.12
2017-11-26T01:48:57.805Z,95.50
2017-11-26T01:49:57.780Z,95.60
2017-11-26T01:50:57.762Z,95.64
2017-11-26T01:51:57.807Z,94.93
2017-11-26T01:52:57.712Z,94.79
2017-11-26T01:53:57.685Z,95.55
2017-11-26T01:54:57.665Z,95.64
2017-11-26T01:55:57.704Z,95.07
2017-11-26T01:56:57.614Z,95.55
2017-11-26T01:57:57.591Z,95.69
2017-11-26T01:58:57.567Z,95.45
2017-11-26T01:59:57.542Z,95.36
2017-11-26T02:00:57.521Z,95.50
2017-11-26T02:01:57.499Z,95.12
2017-11-26T02:02:57.481Z,95.50
2017-11-26T02:03:57.445Z,94.84
2017-11-26T02:04:57.423Z,95.12
2017-11-26T02:05:57.398Z,94.93
2017-11-26T02:06:57.378Z,94.93
2017-11-26T02:07:57.352Z,94.46
2017-11-26T02:08:57.332Z,94.65
2017-11-26T02:09:57.302Z,94.46
2017-11-26T02:10:57.284Z,94.37
2017-11-26T02:11:57.255Z,94.37
2017-11-26T02:12:57.233Z,94.27
2017-11-26T02:13:57.217Z,94.08
2017-11-26T02:14:57.183Z,94.37
2017-11-26T02:15:57.167Z,94.56
2017-11-26T02:16:57.132Z,94.56
2017-11-26T02:17:57.132Z,94.27
2017-11-26T02:18:57.088Z,94.27
2017-11-26T02:19:57.063Z,94.37
2017-11-26T02:20:57.041Z,93.89
2017-11-26T02:21:57.029Z,93.80
2017-11-26T02:22:56.993Z,93.42
2017-11-26T02:23:56.971Z,93.80
2017-11-26T02:24:56.950Z,93.89
2017-11-26T02:25:56.921Z,94.08
2017-11-26T02:26:56.896Z,93.89
2017-11-26T02:27:56.876Z,93.70
2017-11-26T02:28:56.849Z,94.08
2017-11-26T02:29:56.825Z,93.61
2017-11-26T02:30:56.799Z,93.61
2017-11-26T02:31:56.780Z,93.89
2017-11-26T02:32:56.755Z,94.56
2017-11-26T02:33:56.755Z,94.27
2017-11-26T02:34:56.709Z,94.74
2017-11-26T02:35:56.681Z,94.65
2017-11-26T02:36:56.667Z,94.27
2017-11-26T02:37:56.665Z,94.37
2017-11-26T02:38:56.613Z,94.84
2017-11-26T02:39:56.587Z,95.60
2017-11-26T02:40:56.577Z,95.12
2017-11-26T02:41:56.540Z,94.65
2017-11-26T02:42:56.526Z,95.03
2017-11-26T02:43:56.493Z,95.03
2017-11-26T02:44:56.470Z,95.03
2017-11-26T02:45:56.447Z,94.65
2017-11-26T02:46:56.430Z,95.03
2017-11-26T02:47:56.396Z,95.03
2017-11-26T02:48:56.378Z,95.03
2017-11-26T02:49:56.358Z,94.27
2017-11-26T02:50:56.331Z,94.46
2017-11-26T02:51:56.326Z,94.56
2017-11-26T02:52:56.280Z,95.12
2017-11-26T02:53:56.257Z,94.84
2017-11-26T02:54:56.242Z,94.84
2017-11-26T02:55:56.207Z,94.84
2017-11-26T02:56:56.205Z,95.41
2017-11-26T02:57:56.160Z,95.41
2017-11-26T02:58:56.144Z,95.60
2017-11-26T02:59:56.115Z,95.50
2017-11-26T03:00:56.120Z,95.60
2017-11-26T03:01:56.068Z,95.50
2017-11-26T03:02:56.172Z,94.84
2017-11-26T03:03:56.015Z,94.93
2017-11-26T03:04:55.995Z,95.31
2017-11-26T03:05:55.970Z,95.41
2017-11-26T03:06:56.000Z,94.93
2017-11-26T03:07:55.932Z,94.84
2017-11-26T03:08:55.899Z,94.65
2017-11-26T03:09:55.873Z,94.74
2017-11-26T03:10:55.853Z,94.93
2017-11-26T03:11:55.829Z,95.03
2017-11-26T03:12:55.803Z,94.84
2017-11-26T03:13:55.785Z,94.84
2017-11-26T03:14:55.755Z,94.74
2017-11-26T03:15:55.732Z,94.65
2017-11-26T03:16:55.717Z,95.60
2017-11-26T03:17:55.682Z,95.03
2017-11-26T03:18:55.663Z,95.60
2017-11-26T03:19:55.637Z,95.31
2017-11-26T03:20:55.613Z,95.31
2017-11-26T03:21:55.587Z,95.60
2017-11-26T03:22:55.564Z,95.69
2017-11-26T03:23:55.542Z,95.50
2017-11-26T03:24:55.541Z,95.60
2017-11-26T03:25:55.505Z,95.41
2017-11-26T03:26:55.472Z,95.50
2017-11-26T03:27:55.445Z,95.31
2017-11-26T03:28:55.422Z,95.41
2017-11-26T03:29:55.400Z,95.60
2017-11-26T03:30:55.376Z,95.60
2017-11-26T03:31:55.352Z,95.60
2017-11-26T03:32:55.330Z,95.03
2017-11-26T03:33:55.302Z,95.03
2017-11-26T03:34:55.284Z,94.93
2017-11-26T03:35:55.260Z,94.74
2017-11-26T03:36:55.232Z,95.60
2017-11-26T03:37:55.217Z,94.46
2017-11-26T03:38:55.183Z,94.37
2017-11-26T03:39:55.170Z,94.74
2017-11-26T03:40:55.139Z,94.37
2017-11-26T03:41:55.113Z,94.46
2017-11-26T03:42:55.089Z,93.80
2017-11-26T03:43:55.069Z,93.89
2017-11-26T03:44:55.055Z,94.04
2017-11-26T03:45:55.019Z,93.99
2017-11-26T03:46:54.998Z,93.80
2017-11-26T03:47:54.979Z,94.56
2017-11-26T03:48:54.956Z,93.99
2017-11-26T03:49:54.924Z,93.80
2017-11-26T03:50:54.900Z,93.99
2017-11-26T03:51:54.918Z,93.99
2017-11-26T03:52:54.859Z,93.99
2017-11-26T03:53:54.831Z,93.80
2017-11-26T03:54:54.807Z,94.65
2017-11-26T03:55:54.787Z,93.61
2017-11-26T03:56:54.756Z,93.70
2017-11-26T03:57:54.749Z,93.80
2017-11-26T03:58:54.709Z,94.46
2017-11-26T03:59:54.695Z,93.80
2017-11-26T04:00:54.670Z,94.08
2017-11-26T04:01:54.665Z,94.65
2017-11-26T04:02:54.615Z,94.84
2017-11-26T04:03:54.596Z,94.65
2017-11-26T04:04:54.567Z,94.37
2017-11-26T04:05:54.544Z,94.27
2017-11-26T04:06:54.520Z,93.99
2017-11-26T04:07:54.506Z,93.80
2017-11-26T04:08:54.475Z,93.99
2017-11-26T04:09:54.450Z,94.65
2017-11-26T04:10:54.424Z,94.27
2017-11-26T04:11:54.495Z,94.56
2017-11-26T04:12:54.379Z,94.65
2017-11-26T04:13:54.357Z,93.99
2017-11-26T04:14:54.333Z,93.80
2017-11-26T04:15:54.312Z,93.70
2017-11-26T04:16:54.290Z,94.46
2017-11-26T04:17:54.401Z,94.27
2017-11-26T04:18:54.244Z,94.46
2017-11-26T04:19:54.213Z,94.56
2017-11-26T04:20:54.192Z,94.46
2017-11-26T04:21:54.164Z,94.65
2017-11-26T04:22:54.147Z,94.46
2017-11-26T04:23:54.119Z,94.46
2017-11-26T04:24:54.096Z,94.18
2017-11-26T04:25:54.072Z,94.27
2017-11-26T04:26:54.046Z,93.89
2017-11-26T04:27:54.045Z,93.89
2017-11-26T04:28:54.003Z,93.70
2017-11-26T04:29:53.974Z,94.65
2017-11-26T04:30:53.951Z,93.80
2017-11-26T04:31:53.933Z,93.51
2017-11-26T04:32:53.904Z,93.51
2017-11-26T04:33:53.882Z,93.32
2017-11-26T04:34:53.858Z,93.42
2017-11-26T04:35:53.834Z,93.89
2017-11-26T04:36:53.829Z,93.80
2017-11-26T04:37:53.785Z,93.89
2017-11-26T04:38:53.761Z,93.89
2017-11-26T04:39:53.742Z,94.08
2017-11-26T04:40:53.717Z,93.80
2017-11-26T04:41:53.690Z,93.61
2017-11-26T04:42:53.665Z,93.51
2017-11-26T04:43:53.648Z,93.99
2017-11-26T04:44:53.619Z,93.42
2017-11-26T04:45:53.600Z,94.27
2017-11-26T04:46:53.569Z,93.80
2017-11-26T04:47:53.543Z,93.51
2017-11-26T04:48:53.521Z,93.99
2017-11-26T04:49:53.502Z,93.51
2017-11-26T04:50:53.475Z,93.70
2017-11-26T04:51:53.450Z,94.37
2017-11-26T04:52:53.438Z,94.65
2017-11-26T04:53:53.401Z,93.51
2017-11-26T04:54:53.381Z,94.27
2017-11-26T04:55:53.356Z,93.80
2017-11-26T04:56:53.329Z,93.80
2017-11-26T04:57:53.307Z,93.80
2017-11-26T04:58:53.283Z,93.89
2017-11-26T04:59:53.259Z,93.89
2017-11-26T05:00:53.236Z,94.18
2017-11-26T05:01:53.216Z,93.99
2017-11-26T05:02:53.196Z,93.89
2017-11-26T05:03:53.162Z,93.99
2017-11-26T05:04:53.138Z,93.70
2017-11-26T05:05:53.118Z,93.99
2017-11-26T05:06:53.119Z,94.08
2017-11-26T05:07:53.077Z,93.89
2017-11-26T05:08:53.045Z,94.08
2017-11-26T05:09:53.027Z,93.99
2017-11-26T05:10:52.995Z,93.80
2017-11-26T05:11:52.969Z,94.56
2017-11-26T05:12:52.954Z,94.65
2017-11-26T05:13:52.925Z,93.89
2017-11-26T05:14:52.897Z,93.89
2017-11-26T05:15:52.877Z,93.51
2017-11-26T05:16:52.900Z,93.51
2017-11-26T05:17:52.829Z,93.89
2017-11-26T05:18:52.821Z,93.99
2017-11-26T05:19:52.790Z,94.56
2017-11-26T05:20:52.808Z,93.89
2017-11-26T05:21:52.729Z,93.80
2017-11-26T05:22:52.840Z,93.99
2017-11-26T05:23:52.685Z,94.37
2017-11-26T05:24:52.658Z,93.80
2017-11-26T05:25:52.633Z,94.27
2017-11-26T05:26:52.616Z,94.46
2017-11-26T05:27:52.595Z,94.08
2017-11-26T05:28:52.562Z,93.61
2017-11-26T05:29:52.537Z,93.51
2017-11-26T05:30:52.515Z,94.08
2017-11-26T05:31:52.492Z,93.99
2017-11-26T05:32:52.474Z,93.70
2017-11-26T05:33:52.445Z,93.80
2017-11-26T05:34:52.417Z,93.61
2017-11-26T05:35:52.401Z,93.80
2017-11-26T05:36:52.377Z,94.37
2017-11-26T05:37:52.344Z,93.61
2017-11-26T05:38:52.328Z,93.80
2017-11-26T05:39:52.297Z,94.56
2017-11-26T05:40:52.281Z,94.08
2017-11-26T05:41:52.250Z,94.65
2017-11-26T05:42:52.225Z,94.37
2017-11-26T05:43:52.217Z,94.37
2017-11-26T05:44:52.175Z,94.37
2017-11-26T05:45:52.152Z,94.08
2017-11-26T05:46:52.126Z,94.27
2017-11-26T05:47:52.103Z,94.08
2017-11-26T05:48:52.080Z,94.27
2017-11-26T05:49:52.057Z,94.56
2017-11-26T05:50:52.031Z,94.27
2017-11-26T05:51:52.005Z,94.37
2017-11-26T05:52:51.981Z,94.56
2017-11-26T05:53:51.958Z,94.37
2017-11-26T05:54:51.936Z,94.27
2017-11-26T05:55:51.908Z,94.08
2017-11-26T05:56:51.884Z,94.27
2017-11-26T05:57:51.876Z,94.08
2017-11-26T05:58:51.844Z,94.37
2017-11-26T05:59:51.812Z,94.18
2017-11-26T06:00:51.789Z,94.37
2017-11-26T06:01:51.759Z,94.18
2017-11-26T06:02:51.739Z,94.37
2017-11-26T06:03:51.717Z,94.08
2017-11-26T06:04:51.688Z,94.37
2017-11-26T06:05:51.661Z,93.61
2017-11-26T06:06:51.639Z,93.99
2017-11-26T06:07:51.617Z,93.99
2017-11-26T06:08:51.592Z,93.89
2017-11-26T06:09:51.569Z,93.32
2017-11-26T06:10:51.546Z,93.61
2017-11-26T06:11:51.522Z,93.51
2017-11-26T06:12:51.496Z,93.89
2017-11-26T06:13:51.488Z,93.70
2017-11-26T06:14:51.448Z,94.46
2017-11-26T06:15:51.421Z,93.61
2017-11-26T06:16:51.402Z,93.89
2017-11-26T06:17:51.446Z,93.99
2017-11-26T06:18:51.348Z,93.89
2017-11-26T06:19:51.324Z,93.70
2017-11-26T06:20:51.301Z,93.61
2017-11-26T06:21:51.275Z,93.13
2017-11-26T06:22:51.250Z,93.04
2017-11-26T06:23:51.311Z,93.23
2017-11-26T06:24:51.205Z,93.32
2017-11-26T06:25:51.177Z,93.42
2017-11-26T06:26:51.154Z,93.32
2017-11-26T06:27:51.242Z,93.61
2017-11-26T06:28:51.112Z,93.80
2017-11-26T06:29:51.084Z,93.80
2017-11-26T06:30:51.057Z,93.61
2017-11-26T06:31:51.033Z,93.51
2017-11-26T06:32:51.009Z,93.42
2017-11-26T06:33:50.985Z,93.61
2017-11-26T06:34:50.962Z,93.42
2017-11-26T06:35:50.935Z,93.13
2017-11-26T06:36:50.912Z,93.04
2017-11-26T06:37:50.887Z,92.94
2017-11-26T06:38:50.863Z,93.04
2017-11-26T06:39:50.847Z,93.13
2017-11-26T06:40:50.814Z,93.04
2017-11-26T06:41:50.792Z,93.13
2017-11-26T06:42:50.767Z,93.42
2017-11-26T06:43:50.765Z,92.94
2017-11-26T06:44:50.721Z,93.04
2017-11-26T06:45:50.694Z,93.04
2017-11-26T06:46:50.681Z,93.32
2017-11-26T06:47:50.661Z,93.32
2017-11-26T06:48:50.623Z,93.13
2017-11-26T06:49:50.601Z,93.61
2017-11-26T06:50:50.572Z,93.23
2017-11-26T06:51:50.550Z,93.42
2017-11-26T06:52:50.526Z,93.13
2017-11-26T06:53:50.500Z,93.04
2017-11-26T06:54:50.480Z,93.23
2017-11-26T06:55:50.452Z,93.61
2017-11-26T06:56:50.429Z,93.51
2017-11-26T06:57:50.405Z,93.13
2017-11-26T06:58:50.381Z,93.04
2017-11-26T06:59:50.360Z,93.04
2017-11-26T07:00:50.333Z,92.38
2017-11-26T07:01:50.314Z,92.38
2017-11-26T07:02:50.284Z,92.28
2017-11-26T07:03:50.261Z,92.66
2017-11-26T07:04:50.237Z,92.76
2017-11-26T07:05:50.215Z,92.57
2017-11-26T07:06:50.188Z,92.76
2017-11-26T07:07:50.161Z,92.85
2017-11-26T07:08:50.140Z,92.38
2017-11-26T07:09:50.119Z,92.85
2017-11-26T07:10:50.093Z,92.94
2017-11-26T07:11:50.070Z,92.66
2017-11-26T07:12:50.049Z,92.85
2017-11-26T07:13:50.020Z,92.57
2017-11-26T07:14:49.997Z,92.94
2017-11-26T07:15:49.972Z,92.57
2017-11-26T07:16:49.950Z,92.76
2017-11-26T07:17:49.926Z,92.57
2017-11-26T07:18:49.927Z,92.38
2017-11-26T07:19:49.884Z,92.38
2017-11-26T07:20:49.857Z,92.09
2017-11-26T07:21:49.827Z,91.81
2017-11-26T07:22:49.834Z,91.62
2017-11-26T07:23:49.781Z,91.52
2017-11-26T07:24:49.796Z,91.71
2017-11-26T07:25:49.733Z,91.62
2017-11-26T07:26:49.707Z,91.71
2017-11-26T07:27:49.693Z,92.04
2017-11-26T07:28:49.759Z,92.09
2017-11-26T07:29:49.639Z,91.66
2017-11-26T07:30:49.629Z,91.38
2017-11-26T07:31:49.590Z,91.57
2017-11-26T07:32:49.663Z,91.19
2017-11-26T07:33:49.550Z,91.38
2017-11-26T07:34:49.536Z,91.00
2017-11-26T07:35:49.495Z,91.09
2017-11-26T07:36:49.473Z,91.19
2017-11-26T07:37:49.465Z,91.28
2017-11-26T07:38:49.548Z,91.38
2017-11-26T07:39:49.399Z,90.81
2017-11-26T07:40:49.376Z,91.19
2017-11-26T07:41:49.353Z,91.38
2017-11-26T07:42:49.328Z,91.19
2017-11-26T07:43:49.314Z,91.19
2017-11-26T07:44:49.294Z,91.28
2017-11-26T07:45:49.258Z,91.47
2017-11-26T07:46:49.237Z,91.57
2017-11-26T07:47:49.224Z,91.76
2017-11-26T07:48:49.187Z,91.28
2017-11-26T07:49:49.164Z,91.28
2017-11-26T07:50:49.144Z,91.66
2017-11-26T07:51:49.117Z,91.38
2017-11-26T07:52:49.103Z,91.57
2017-11-26T07:53:49.072Z,91.38
2017-11-26T07:54:49.044Z,91.19
2017-11-26T07:55:49.022Z,91.47
2017-11-26T07:56:49.000Z,91.28
2017-11-26T07:57:48.990Z,91.76
2017-11-26T07:58:48.951Z,91.47
2017-11-26T07:59:48.933Z,91.19
2017-11-26T08:00:48.903Z,91.28
2017-11-26T08:01:48.882Z,90.91
2017-11-26T08:02:48.854Z,90.81
2017-11-26T08:03:48.841Z,90.72
2017-11-26T08:04:48.809Z,91.28
2017-11-26T08:05:48.785Z,91.19
2017-11-26T08:06:48.759Z,91.19
2017-11-26T08:07:48.759Z,91.47
2017-11-26T08:08:48.715Z,91.09
2017-11-26T08:09:48.693Z,91.28
2017-11-26T08:10:48.678Z,91.00
2017-11-26T08:11:48.645Z,91.19
2017-11-26T08:12:48.621Z,91.28
2017-11-26T08:13:48.600Z,91.00
2017-11-26T08:14:48.612Z,91.38
2017-11-26T08:15:48.551Z,90.53
2017-11-26T08:16:48.542Z,90.53
2017-11-26T08:17:48.505Z,90.53
2017-11-26T08:18:48.482Z,90.34
2017-11-26T08:19:48.456Z,90.53
2017-11-26T08:20:48.443Z,90.34
2017-11-26T08:21:48.411Z,89.48
2017-11-26T08:22:48.387Z,89.96
2017-11-26T08:23:48.367Z,90.24
2017-11-26T08:24:48.341Z,89.86
2017-11-26T08:25:48.318Z,89.77
2017-11-26T08:26:48.296Z,89.11
2017-11-26T08:27:48.294Z,89.11
2017-11-26T08:28:48.254Z,89.39
2017-11-26T08:29:48.244Z,89.01
2017-11-26T08:30:48.216Z,89.58
2017-11-26T08:31:48.179Z,89.20
2017-11-26T08:32:48.157Z,89.29
2017-11-26T08:33:48.145Z,89.11
2017-11-26T08:34:48.110Z,88.96
2017-11-26T08:35:48.086Z,89.34
2017-11-26T08:36:48.111Z,88.92
2017-11-26T08:37:48.039Z,88.92
2017-11-26T08:38:48.019Z,89.29
2017-11-26T08:39:48.018Z,89.11
2017-11-26T08:40:47.969Z,89.34
2017-11-26T08:41:47.947Z,88.96
2017-11-26T08:42:47.926Z,89.43
2017-11-26T08:43:47.955Z,88.82
2017-11-26T08:44:47.879Z,89.43
2017-11-26T08:45:47.856Z,89.34
2017-11-26T08:46:47.836Z,88.77
2017-11-26T08:47:47.823Z,88.20
2017-11-26T08:48:47.788Z,88.20
2017-11-26T08:49:47.778Z,87.82
2017-11-26T08:50:47.745Z,88.39
2017-11-26T08:51:47.719Z,88.48
2017-11-26T08:52:47.706Z,88.48
2017-11-26T08:53:47.690Z,88.01
2017-11-26T08:54:47.652Z,88.48
2017-11-26T08:55:47.630Z,88.01
2017-11-26T08:56:47.605Z,88.10
2017-11-26T08:57:47.581Z,88.01
2017-11-26T08:58:47.563Z,88.01
2017-11-26T08:59:47.543Z,88.10
2017-11-26T09:00:47.520Z,88.01
2017-11-26T09:01:47.501Z,88.29
2017-11-26T09:02:47.470Z,87.35
2017-11-26T09:03:47.446Z,87.63
2017-11-26T09:04:47.433Z,87.54
2017-11-26T09:05:47.409Z,87.45
2017-11-26T09:06:47.383Z,87.06
2017-11-26T09:07:47.360Z,86.87
2017-11-26T09:08:47.341Z,87.06
2017-11-26T09:09:47.314Z,86.59
2017-11-26T09:10:47.295Z,86.72
2017-11-26T09:11:47.273Z,86.97
2017-11-26T09:12:47.256Z,87.35
2017-11-26T09:13:47.230Z,87.63
2017-11-26T09:14:47.205Z,87.63
2017-11-26T09:15:47.188Z,88.01
2017-11-26T09:16:47.161Z,88.01
2017-11-26T09:17:47.139Z,88.10
2017-11-26T09:18:47.121Z,87.73
2017-11-26T09:19:47.094Z,87.54
2017-11-26T09:20:47.071Z,87.06
2017-11-26T09:21:47.074Z,87.30
2017-11-26T09:22:47.037Z,87.20
2017-11-26T09:23:47.008Z,87.45
2017-11-26T09:24:46.996Z,87.35
2017-11-26T09:25:46.961Z,87.25
2017-11-26T09:26:46.949Z,87.35
2017-11-26T09:27:46.924Z,87.45
2017-11-26T09:28:46.907Z,87.20
2017-11-26T09:29:46.889Z,87.20
2017-11-26T09:30:46.852Z,87.01
2017-11-26T09:31:46.840Z,86.54
2017-11-26T09:32:46.820Z,86.54
2017-11-26T09:33:46.792Z,86.82
2017-11-26T09:34:46.768Z,87.01
2017-11-26T09:35:46.749Z,86.25
2017-11-26T09:36:46.751Z,86.63
2017-11-26T09:37:46.702Z,87.20
2017-11-26T09:38:46.682Z,87.30
2017-11-26T09:39:46.667Z,87.39
2017-11-26T09:40:46.647Z,87.11
2017-11-26T09:41:46.618Z,87.20
2017-11-26T09:42:46.599Z,87.20
2017-11-26T09:43:46.573Z,87.39
2017-11-26T09:44:46.555Z,87.20
2017-11-26T09:45:46.528Z,88.01
2017-11-26T09:46:46.513Z,87.87
2017-11-26T09:47:46.493Z,87.87
2017-11-26T09:48:46.537Z,87.87
2017-11-26T09:49:46.441Z,87.39
2017-11-26T09:50:46.443Z,87.30
2017-11-26T09:51:46.400Z,86.82
2017-11-26T09:52:46.374Z,86.91
2017-11-26T09:53:46.358Z,86.44
2017-11-26T09:54:46.383Z,85.35
2017-11-26T09:55:46.321Z,85.06
2017-11-26T09:56:46.289Z,84.87
2017-11-26T09:57:46.266Z,84.83
2017-11-26T09:58:46.246Z,85.02
2017-11-26T09:59:46.230Z,85.87
2017-11-26T10:00:46.249Z,86.25
2017-11-26T10:01:46.185Z,86.25
2017-11-26T10:02:46.164Z,86.63
2017-11-26T10:03:46.145Z,86.63
2017-11-26T10:04:46.139Z,86.72
2017-11-26T10:05:46.097Z,87.20
2017-11-26T10:06:46.075Z,87.11
2017-11-26T10:07:46.056Z,87.20
2017-11-26T10:08:46.035Z,87.20
2017-11-26T10:09:46.019Z,87.01
2017-11-26T10:10:46.021Z,86.91
2017-11-26T10:11:45.970Z,87.11
2017-11-26T10:12:45.952Z,86.82
2017-11-26T10:13:45.927Z,86.44
2017-11-26T10:14:46.014Z,87.68
2017-11-26T10:15:45.884Z,88.34
2017-11-26T10:16:45.871Z,87.68
2017-11-26T10:17:45.842Z,87.49
2017-11-26T10:18:45.820Z,87.87
2017-11-26T10:19:45.806Z,88.43
2017-11-26T10:20:45.789Z,88.06
2017-11-26T10:21:45.762Z,88.15
2017-11-26T10:22:45.732Z,87.77
2017-11-26T10:23:45.719Z,87.39
2017-11-26T10:24:45.716Z,87.49
2017-11-26T10:25:45.678Z,87.58
2017-11-26T10:26:45.770Z,87.49
2017-11-26T10:27:45.633Z,88.62
2017-11-26T10:28:45.617Z,88.24
2017-11-26T10:29:45.585Z,88.62
2017-11-26T10:30:45.564Z,88.34
2017-11-26T10:31:45.545Z,87.77
2017-11-26T10:32:45.545Z,87.96
2017-11-26T10:33:45.509Z,87.58
2017-11-26T10:34:45.480Z,87.11
2017-11-26T10:35:45.466Z,87.43
2017-11-26T10:36:45.441Z,86.82
2017-11-26T10:37:45.435Z,87.72
2017-11-26T10:38:45.390Z,86.35
2017-11-26T10:39:45.370Z,86.25
2017-11-26T10:40:45.351Z,86.35
2017-11-26T10:41:45.326Z,86.30
2017-11-26T10:42:45.302Z,86.25
2017-11-26T10:43:45.289Z,85.91
2017-11-26T10:44:45.260Z,85.72
2017-11-26T10:45:45.240Z,85.53
2017-11-26T10:46:45.222Z,85.49
2017-11-26T10:47:45.197Z,85.59
2017-11-26T10:48:45.185Z,86.44
2017-11-26T10:49:45.165Z,85.97
2017-11-26T10:50:45.143Z,86.35
2017-11-26T10:51:45.116Z,86.44
2017-11-26T10:52:45.099Z,86.91
2017-11-26T10:53:45.083Z,87.11
2017-11-26T10:54:45.048Z,87.01
2017-11-26T10:55:45.032Z,87.20
2017-11-26T10:56:45.010Z,86.25
2017-11-26T10:57:44.985Z,86.07
2017-11-26T10:58:44.966Z,86.39
2017-11-26T10:59:44.954Z,86.25
2017-11-26T11:00:44.928Z,85.87
2017-11-26T11:01:44.904Z,86.16
2017-11-26T11:02:44.877Z,86.07
2017-11-26T11:03:44.867Z,86.44
2017-11-26T11:04:44.834Z,86.44
2017-11-26T11:05:44.814Z,86.63
2017-11-26T11:06:44.793Z,86.35
2017-11-26T11:07:44.776Z,86.72
2017-11-26T11:08:44.755Z,86.25
2017-11-26T11:09:44.735Z,86.44
2017-11-26T11:10:44.714Z,86.25
2017-11-26T11:11:44.687Z,85.97
2017-11-26T11:12:44.669Z,86.35
2017-11-26T11:13:44.652Z,86.35
2017-11-26T11:14:44.642Z,86.25
2017-11-26T11:15:44.624Z,85.68
2017-11-26T11:16:44.579Z,85.11
2017-11-26T11:17:44.558Z,85.11
2017-11-26T11:18:44.535Z,85.49
2017-11-26T11:19:44.524Z,85.68
2017-11-26T11:20:44.492Z,86.54
2017-11-26T11:21:44.472Z,86.11
2017-11-26T11:22:44.461Z,85.63
2017-11-26T11:23:44.437Z,85.35
2017-11-26T11:24:44.416Z,84.87
2017-11-26T11:25:44.385Z,84.06
2017-11-26T11:26:44.369Z,82.16
2017-11-26T11:27:44.344Z,80.49
2017-11-26T11:28:44.334Z,80.74
2017-11-26T11:29:44.309Z,81.78
2017-11-26T11:30:44.285Z,82.69
2017-11-26T11:31:44.281Z,83.54
2017-11-26T11:32:44.248Z,83.64
2017-11-26T11:33:44.223Z,84.21
2017-11-26T11:34:44.216Z,84.30
2017-11-26T11:35:44.207Z,84.59
2017-11-26T11:36:44.152Z,84.49
2017-11-26T11:37:44.143Z,85.35
2017-11-26T11:38:44.113Z,85.25
2017-11-26T11:39:44.101Z,85.35
2017-11-26T11:40:44.076Z,85.53
2017-11-26T11:41:44.059Z,85.53
2017-11-26T11:42:44.032Z,85.91
2017-11-26T11:43:44.017Z,85.35
2017-11-26T11:44:43.999Z,84.49
2017-11-26T11:45:43.981Z,84.68
2017-11-26T11:46:43.944Z,83.49
2017-11-26T11:47:43.935Z,83.01
2017-11-26T11:48:43.910Z,82.54
2017-11-26T11:49:43.884Z,82.54
2017-11-26T11:50:43.861Z,82.16
2017-11-26T11:51:43.953Z,81.97
2017-11-26T11:52:43.821Z,81.97
2017-11-26T11:53:43.797Z,82.07
2017-11-26T11:54:43.781Z,82.26
2017-11-26T11:55:43.821Z,81.25
2017-11-26T11:56:43.751Z,80.11
2017-11-26T11:57:43.828Z,80.11
2017-11-26T11:58:43.704Z,78.53
2017-11-26T11:59:43.675Z,77.01
2017-11-26T12:00:43.658Z,76.54
2017-11-26T12:01:43.695Z,76.16
2017-11-26T12:02:43.622Z,76.63
2017-11-26T12:03:43.597Z,76.82
2017-11-26T12:04:43.583Z,77.01
2017-11-26T12:05:43.554Z,76.20
2017-11-26T12:06:43.535Z,75.49
2017-11-26T12:07:43.577Z,76.63
2017-11-26T12:08:43.502Z,77.55
2017-11-26T12:09:43.474Z,78.74
2017-11-26T12:10:43.458Z,79.44
2017-11-26T12:11:43.532Z,79.16
2017-11-26T12:12:43.408Z,79.06
2017-11-26T12:13:43.407Z,79.50
2017-11-26T12:14:43.370Z,80.74
2017-11-26T12:15:43.351Z,81.59
2017-11-26T12:16:43.353Z,82.31
2017-11-26T12:17:43.307Z,82.69
2017-11-26T12:18:43.286Z,82.69
2017-11-26T12:19:43.285Z,83.01
2017-11-26T12:20:43.245Z,82.40
2017-11-26T12:21:43.231Z,82.73
2017-11-26T12:22:43.210Z,82.50
2017-11-26T12:23:43.187Z,82.54
2017-11-26T12:24:43.165Z,82.54
2017-11-26T12:25:43.169Z,82.59
2017-11-26T12:26:43.133Z,83.16
2017-11-26T12:27:43.108Z,83.07
2017-11-26T12:28:43.096Z,82.88
2017-11-26T12:29:43.066Z,83.26
2017-11-26T12:30:43.066Z,83.54
2017-11-26T12:31:43.029Z,84.01
2017-11-26T12:32:43.001Z,84.11
2017-11-26T12:33:42.982Z,84.30
2017-11-26T12:34:42.957Z,84.30
2017-11-26T12:35:42.935Z,84.59
2017-11-26T12:36:42.917Z,85.06
2017-11-26T12:37:42.902Z,84.59
2017-11-26T12:38:42.884Z,84.21
2017-11-26T12:39:42.868Z,84.01
2017-11-26T12:40:42.837Z,84.21
2017-11-26T12:41:42.811Z,83.83
2017-11-26T12:42:42.794Z,85.06
2017-11-26T12:43:42.771Z,85.82
2017-11-26T12:44:42.755Z,86.20
2017-11-26T12:45:42.756Z,85.97
2017-11-26T12:46:42.711Z,86.25
2017-11-26T12:47:42.689Z,86.07
2017-11-26T12:48:42.663Z,86.63
2017-11-26T12:49:42.650Z,85.97
2017-11-26T12:50:42.623Z,86.44
2017-11-26T12:51:42.615Z,86.35